createdAt,value
2022-09-29T00:01:42.706Z,14.68
2022-09-29T00:04:15.705Z,8.35
2022-09-29T00:06:51.767Z,7.78
2022-09-29T00:09:18.495Z,8.93
2022-09-29T00:11:45.254Z,9.67
2022-09-29T00:14:21.457Z,7.68
2022-09-29T00:16:50.451Z,8.38
2022-09-29T00:19:17.454Z,6.35
2022-09-29T00:21:44.135Z,13.48
2022-09-29T00:24:10.994Z,13.73
2022-09-29T00:26:37.890Z,13.98
2022-09-29T00:29:05.170Z,9.80
2022-09-29T00:31:33.734Z,10.02
2022-09-29T00:34:00.772Z,9.13
2022-09-29T00:36:27.569Z,8.30
2022-09-29T00:38:54.141Z,9.07
2022-09-29T00:41:24.479Z,8.95
2022-09-29T00:44:02.208Z,11.30
2022-09-29T00:46:47.509Z,12.90
2022-09-29T00:49:20.136Z,12.60
2022-09-29T00:51:59.435Z,12.07
2022-09-29T00:54:28.782Z,9.30
2022-09-29T00:56:57.005Z,12.98
2022-09-29T00:59:40.033Z,9.25
2022-09-29T01:02:06.650Z,9.57
2022-09-29T01:04:33.288Z,10.07
2022-09-29T01:07:00.020Z,17.73
2022-09-29T01:09:36.231Z,17.10
2022-09-29T01:12:03.056Z,17.02
2022-09-29T01:14:31.800Z,13.83
2022-09-29T01:16:58.517Z,13.77
2022-09-29T01:19:49.773Z,13.40
2022-09-29T01:22:40.037Z,11.48
2022-09-29T01:25:12.475Z,15.50
2022-09-29T01:27:59.653Z,10.77
2022-09-29T01:30:57.631Z,12.45
2022-09-29T01:33:57.152Z,12.88
2022-09-29T01:36:32.690Z,15.65
2022-09-29T01:39:23.345Z,10.95
2022-09-29T01:42:17.224Z,11.47
2022-09-29T01:44:50.182Z,16.33
2022-09-29T01:47:43.721Z,13.48
2022-09-29T01:50:38.311Z,15.45
2022-09-29T01:53:36.942Z,11.90
2022-09-29T01:56:15.227Z,14.73
2022-09-29T01:59:10.921Z,15.65
2022-09-29T02:01:43.818Z,13.85
2022-09-29T02:04:19.954Z,14.65
2022-09-29T02:07:07.406Z,11.75
2022-09-29T02:09:39.798Z,13.33
2022-09-29T02:12:08.526Z,16.17
2022-09-29T02:14:43.656Z,15.43
2022-09-29T02:17:26.952Z,15.20
2022-09-29T02:19:53.947Z,11.73
2022-09-29T02:22:21.269Z,13.17
2022-09-29T02:24:57.003Z,13.50
2022-09-29T02:27:28.735Z,20.33
2022-09-29T02:30:01.141Z,13.40
2022-09-29T02:32:29.598Z,20.15
2022-09-29T02:34:57.452Z,11.47
2022-09-29T02:37:48.302Z,17.35
2022-09-29T02:40:32.763Z,13.38
2022-09-29T02:43:02.311Z,16.25
2022-09-29T02:45:54.181Z,13.82
2022-09-29T02:48:56.927Z,12.87
2022-09-29T02:51:26.351Z,12.35
2022-09-29T02:54:15.125Z,17.73
2022-09-29T02:57:16.387Z,13.27
2022-09-29T02:59:49.888Z,14.45
2022-09-29T03:02:22.673Z,12.70
2022-09-29T03:04:52.373Z,13.80
2022-09-29T03:07:22.118Z,14.95
2022-09-29T03:10:18.999Z,12.98
2022-09-29T03:12:45.752Z,15.23
2022-09-29T03:15:15.574Z,15.77
2022-09-29T03:17:48.312Z,14.23
2022-09-29T03:20:20.808Z,17.13
2022-09-29T03:22:53.063Z,12.98
2022-09-29T03:25:22.844Z,13.02
2022-09-29T03:27:52.350Z,12.70
2022-09-29T03:30:19.131Z,12.32
2022-09-29T03:32:49.073Z,11.77
2022-09-29T03:35:18.733Z,11.82
2022-09-29T03:37:57.672Z,18.52
2022-09-29T03:40:30.356Z,14.57
2022-09-29T03:43:02.504Z,13.63
2022-09-29T03:45:51.719Z,15.77
2022-09-29T03:48:24.258Z,16.80
2022-09-29T03:50:54.098Z,17.85
2022-09-29T03:53:25.908Z,14.97
2022-09-29T03:58:59.260Z,18.77
2022-09-29T04:01:38.640Z,15.77
2022-09-29T04:04:05.565Z,16.55
2022-09-29T04:06:48.676Z,20.57
2022-09-29T04:09:15.492Z,13.85
2022-09-29T04:11:48.138Z,13.90
2022-09-29T04:14:17.842Z,12.57
2022-09-29T04:16:48.844Z,14.30
2022-09-29T04:19:24.959Z,15.00
2022-09-29T04:21:54.400Z,13.85
2022-09-29T04:24:32.251Z,16.10
2022-09-29T04:27:04.959Z,14.15
2022-09-29T04:29:54.038Z,12.02
2022-09-29T04:32:18.855Z,16.30
2022-09-29T04:34:54.498Z,16.88
2022-09-29T04:37:24.647Z,14.43
2022-09-29T04:40:00.599Z,11.30
2022-09-29T04:42:36.371Z,13.27
2022-09-29T04:45:12.014Z,17.17
2022-09-29T04:47:42.009Z,14.93
2022-09-29T04:50:17.279Z,15.65
2022-09-29T04:52:44.258Z,18.60
2022-09-29T04:55:12.000Z,14.27
2022-09-29T04:57:48.842Z,12.53
2022-09-29T05:00:16.157Z,13.60
2022-09-29T05:02:49.960Z,12.15
2022-09-29T05:05:17.219Z,18.27
2022-09-29T05:07:43.943Z,18.55
2022-09-29T05:10:22.295Z,15.70
2022-09-29T05:12:50.197Z,17.23
2022-09-29T05:15:21.099Z,13.90
2022-09-29T05:17:51.719Z,15.00
2022-09-29T05:20:24.475Z,14.38
2022-09-29T05:22:51.234Z,19.37
2022-09-29T05:25:20.475Z,23.52
2022-09-29T05:28:01.815Z,14.90
2022-09-29T05:30:31.500Z,16.05
2022-09-29T05:33:09.867Z,13.38
2022-09-29T05:35:39.879Z,17.07
2022-09-29T05:38:06.855Z,16.85
2022-09-29T05:40:33.699Z,12.73
2022-09-29T05:43:00.448Z,15.52
2022-09-29T05:45:35.696Z,16.92
2022-09-29T05:48:09.894Z,18.30
2022-09-29T05:50:45.669Z,13.80
2022-09-29T05:53:12.555Z,17.05
2022-09-29T05:55:47.988Z,17.42
2022-09-29T05:58:14.621Z,14.77
2022-09-29T06:00:44.158Z,16.50
2022-09-29T06:03:13.284Z,20.52
2022-09-29T06:08:21.600Z,24.60
2022-09-29T06:11:01.875Z,19.85
2022-09-29T06:13:28.534Z,19.23
2022-09-29T06:16:01.768Z,23.38
2022-09-29T06:18:28.835Z,22.98
2022-09-29T06:21:03.948Z,20.35
2022-09-29T06:23:33.304Z,20.15
2022-09-29T06:26:07.448Z,21.57
2022-09-29T06:28:34.255Z,21.13
2022-09-29T06:31:07.092Z,27.02
2022-09-29T06:33:35.420Z,22.75
2022-09-29T06:36:11.700Z,26.60
2022-09-29T06:38:44.000Z,35.57
2022-09-29T06:41:10.670Z,20.23
2022-09-29T06:43:39.797Z,22.15
2022-09-29T06:46:09.120Z,20.67
2022-09-29T06:48:41.269Z,18.60
2022-09-29T06:51:17.505Z,22.97
2022-09-29T06:53:52.521Z,22.30
2022-09-29T06:56:23.555Z,20.05
2022-09-29T06:58:52.400Z,26.77
2022-09-29T07:01:21.533Z,22.42
2022-09-29T07:03:54.086Z,19.60
2022-09-29T07:06:20.923Z,20.65
2022-09-29T07:08:54.371Z,26.90
2022-09-29T07:11:27.814Z,19.92
2022-09-29T07:13:55.246Z,22.15
2022-09-29T07:16:22.989Z,22.43
2022-09-29T07:18:52.605Z,20.05
2022-09-29T07:21:25.457Z,24.48
2022-09-29T07:23:58.746Z,25.73
2022-09-29T07:26:30.739Z,23.58
2022-09-29T07:29:02.936Z,20.83
2022-09-29T07:31:43.838Z,21.77
2022-09-29T07:34:14.688Z,23.63
2022-09-29T07:36:41.300Z,22.60
2022-09-29T07:39:08.278Z,20.25
2022-09-29T07:41:44.147Z,29.33
2022-09-29T07:44:18.214Z,24.35
2022-09-29T07:46:48.978Z,25.30
2022-09-29T07:49:15.785Z,21.73
2022-09-29T07:51:45.256Z,25.42
2022-09-29T07:54:19.359Z,21.80
2022-09-29T07:56:55.162Z,23.15
2022-09-29T07:59:28.016Z,20.02
2022-09-29T08:02:04.036Z,20.35
2022-09-29T08:04:30.753Z,25.80
2022-09-29T08:07:00.855Z,19.53
2022-09-29T08:09:39.498Z,21.98
2022-09-29T08:12:08.549Z,23.75
2022-09-29T08:14:35.681Z,23.75
2022-09-29T08:17:08.476Z,19.85
2022-09-29T08:19:40.719Z,25.97
2022-09-29T08:22:12.752Z,24.27
2022-09-29T08:24:45.074Z,24.98
2022-09-29T08:27:18.644Z,21.67
2022-09-29T08:29:48.658Z,22.55
2022-09-29T08:32:18.141Z,24.87
2022-09-29T08:34:51.102Z,22.58
2022-09-29T08:37:30.093Z,22.55
2022-09-29T08:39:59.801Z,27.00
2022-09-29T08:42:53.865Z,24.42
2022-09-29T08:45:50.693Z,26.53
2022-09-29T08:48:33.675Z,25.45
2022-09-29T08:51:06.923Z,26.10
2022-09-29T08:53:53.185Z,28.20
2022-09-29T08:56:48.120Z,25.52
2022-09-29T08:59:14.962Z,27.17
2022-09-29T09:05:46.166Z,22.20
2022-09-29T09:08:31.576Z,24.92
2022-09-29T09:11:27.316Z,21.55
2022-09-29T09:14:18.889Z,29.73
2022-09-29T09:20:01.663Z,23.98
2022-09-29T09:22:56.445Z,20.25
2022-09-29T09:25:35.278Z,20.50
2022-09-29T09:28:06.672Z,21.73
2022-09-29T09:33:45.179Z,17.25
2022-09-29T09:36:42.516Z,17.00
2022-09-29T09:39:21.221Z,22.50
2022-09-29T09:41:51.441Z,19.47
2022-09-29T09:44:20.015Z,14.70
2022-09-29T09:47:00.039Z,18.35
2022-09-29T09:52:39.272Z,15.05
2022-09-29T09:55:10.533Z,15.67
2022-09-29T09:58:04.826Z,16.00
2022-09-29T10:00:42.862Z,14.38
2022-09-29T10:03:10.712Z,16.55
2022-09-29T10:05:41.027Z,15.27
2022-09-29T10:11:27.439Z,11.05
2022-09-29T10:14:19.702Z,12.82
2022-09-29T10:17:17.203Z,14.98
2022-09-29T10:20:09.139Z,16.27
2022-09-29T10:25:28.842Z,17.52
2022-09-29T10:28:01.154Z,14.27
2022-09-29T10:30:35.874Z,12.93
2022-09-29T10:33:05.930Z,12.88
2022-09-29T10:35:40.881Z,16.00
2022-09-29T10:38:35.311Z,13.20
2022-09-29T10:41:08.041Z,12.70
2022-09-29T10:43:34.684Z,10.68
2022-09-29T10:46:05.582Z,9.63
2022-09-29T10:48:34.706Z,8.87
2022-09-29T10:51:05.680Z,11.55
2022-09-29T10:53:42.838Z,14.30
2022-09-29T10:56:09.748Z,12.93
2022-09-29T10:58:57.585Z,11.93
2022-09-29T11:01:50.538Z,9.03
2022-09-29T11:04:26.091Z,12.30
2022-09-29T11:06:53.388Z,15.43
2022-09-29T11:09:20.069Z,16.38
2022-09-29T11:11:50.002Z,13.90
2022-09-29T11:17:53.138Z,10.27
2022-09-29T11:20:31.471Z,10.50
2022-09-29T11:23:04.203Z,11.70
2022-09-29T11:25:46.503Z,8.93
2022-09-29T11:28:52.959Z,11.60
2022-09-29T11:42:03.963Z,10.68
2022-09-29T11:44:57.735Z,8.80
2022-09-29T11:51:39.828Z,10.30
2022-09-29T11:54:54.555Z,8.23
2022-09-29T11:57:55.300Z,5.78
2022-09-29T12:00:43.085Z,5.53
2022-09-29T12:03:24.690Z,6.55
2022-09-29T12:12:56.724Z,7.82
2022-09-29T12:18:54.333Z,8.75
2022-09-29T12:21:44.442Z,7.13
2022-09-29T12:24:37.406Z,5.40
2022-09-29T12:27:14.289Z,9.98
2022-09-29T12:30:10.528Z,7.87
2022-09-29T12:32:46.735Z,5.57
2022-09-29T12:35:18.818Z,6.70
2022-09-29T12:37:56.791Z,8.07
2022-09-29T12:40:48.018Z,5.78
2022-09-29T12:43:50.240Z,8.27
2022-09-29T12:46:31.163Z,6.95
2022-09-29T12:49:38.090Z,7.20
2022-09-29T12:52:34.127Z,5.95
2022-09-29T12:55:15.266Z,6.95
2022-09-29T12:57:44.608Z,6.97
2022-09-29T13:00:14.965Z,7.55
2022-09-29T13:03:08.914Z,6.00
2022-09-29T13:05:41.724Z,6.15
2022-09-29T13:08:42.255Z,9.48
2022-09-29T13:11:20.933Z,7.70
2022-09-29T13:14:25.166Z,5.70
2022-09-29T13:16:57.708Z,7.43
2022-09-29T13:20:03.303Z,5.18
2022-09-29T13:25:47.610Z,5.63
2022-09-29T13:31:31.170Z,7.50
2022-09-29T13:34:02.151Z,8.15
2022-09-29T13:36:40.505Z,10.20
2022-09-29T13:42:33.078Z,8.88
2022-09-29T13:45:15.210Z,10.90
2022-09-29T13:47:53.636Z,7.10
2022-09-29T13:50:52.446Z,8.73
2022-09-29T13:53:21.894Z,7.97
2022-09-29T13:56:03.433Z,8.00
2022-09-29T13:58:37.605Z,7.18
2022-09-29T14:01:45.774Z,6.85
2022-09-29T14:04:53.178Z,6.25
2022-09-29T14:07:40.312Z,7.90
2022-09-29T14:10:37.446Z,6.53
2022-09-29T14:13:16.367Z,10.18
2022-09-29T14:22:54.040Z,5.10
2022-09-29T14:25:20.629Z,11.32
2022-09-29T14:28:20.066Z,11.68
2022-09-29T14:30:55.192Z,6.07
2022-09-29T14:33:34.151Z,5.63
2022-09-29T14:36:14.270Z,6.33
2022-09-29T14:39:24.553Z,5.68
2022-09-29T14:42:13.072Z,5.90
2022-09-29T14:44:49.945Z,4.63
2022-09-29T14:47:42.659Z,5.78
2022-09-29T14:53:34.099Z,4.70
2022-09-29T14:56:41.559Z,5.43
2022-09-29T14:59:52.090Z,4.15
2022-09-29T15:02:26.308Z,5.30
2022-09-29T15:05:37.431Z,5.23
2022-09-29T15:08:53.930Z,10.15
2022-09-29T15:11:29.228Z,3.80
2022-09-29T15:13:59.640Z,2.97
2022-09-29T15:26:00.797Z,7.80
2022-09-29T15:29:05.496Z,6.45
2022-09-29T15:31:34.014Z,9.15
2022-09-29T15:37:14.643Z,2.15
2022-09-29T15:39:54.289Z,5.53
2022-09-29T15:42:28.848Z,1.67
2022-09-29T15:45:09.053Z,6.70
2022-09-29T15:48:24.060Z,2.00
2022-09-29T15:51:02.857Z,6.30
2022-09-29T15:53:38.560Z,2.08
2022-09-29T15:56:08.121Z,4.05
2022-09-29T15:58:44.420Z,3.53
2022-09-29T16:01:13.932Z,2.73
2022-09-29T16:03:53.663Z,2.35
2022-09-29T16:06:28.400Z,5.55
2022-09-29T16:12:19.254Z,5.07
2022-09-29T16:14:56.979Z,3.90
2022-09-29T16:17:25.823Z,3.35
2022-09-29T16:19:54.696Z,3.40
2022-09-29T16:22:27.548Z,2.40
2022-09-29T16:25:20.171Z,3.83
2022-09-29T16:27:58.115Z,2.07
2022-09-29T16:30:33.070Z,2.47
2022-09-29T16:33:16.135Z,2.55
2022-09-29T16:36:02.701Z,4.18
2022-09-29T16:44:55.052Z,5.88
2022-09-29T16:47:30.337Z,3.78
2022-09-29T16:50:24.681Z,4.45
2022-09-29T16:53:31.343Z,1.70
2022-09-29T16:59:18.004Z,4.60
2022-09-29T17:08:28.123Z,2.33
2022-09-29T17:11:20.112Z,2.47
2022-09-29T17:13:48.415Z,1.77
2022-09-29T17:16:19.092Z,2.50
2022-09-29T17:22:44.494Z,2.85
2022-09-29T17:26:03.049Z,2.57
2022-09-29T17:37:44.803Z,3.03
2022-09-29T17:40:50.435Z,2.43
2022-09-29T17:43:17.521Z,2.67
2022-09-29T17:46:09.716Z,3.30
2022-09-29T17:48:36.528Z,4.60
2022-09-29T17:51:03.250Z,7.40
2022-09-29T17:53:30.037Z,5.47
2022-09-29T17:55:57.824Z,4.75
2022-09-29T17:58:27.599Z,5.43
2022-09-29T18:00:55.221Z,5.97
2022-09-29T18:03:22.394Z,7.05
2022-09-29T18:06:16.087Z,5.17
2022-09-29T18:08:45.008Z,8.02
2022-09-29T18:11:13.347Z,5.68
2022-09-29T18:13:40.298Z,7.25
2022-09-29T18:16:10.234Z,3.25
2022-09-29T18:18:37.504Z,4.80
2022-09-29T18:21:04.348Z,4.68
2022-09-29T18:23:31.330Z,5.18
2022-09-29T18:38:04.143Z,8.13
2022-09-29T18:40:31.862Z,8.35
2022-09-29T18:42:58.564Z,9.00
2022-09-29T18:45:34.340Z,7.23
2022-09-29T18:48:03.537Z,8.95
2022-09-29T18:50:42.183Z,9.48
2022-09-29T18:53:12.596Z,9.30
2022-09-29T18:58:32.871Z,8.27
2022-09-29T19:11:53.219Z,8.53
2022-09-29T19:17:15.135Z,7.78
2022-09-29T19:19:41.929Z,7.32
2022-09-29T19:22:11.434Z,6.85
2022-09-29T19:24:38.474Z,5.93
2022-09-29T19:27:05.344Z,6.72
2022-09-29T19:51:39.135Z,6.17
2022-09-29T19:54:33.793Z,15.57
2022-09-29T19:57:04.847Z,9.70
2022-09-29T20:05:20.659Z,9.13
2022-09-29T20:07:59.211Z,8.00
2022-09-29T20:19:25.396Z,7.80
2022-09-29T20:31:01.644Z,7.03
2022-09-29T20:33:30.451Z,11.70
2022-09-29T20:36:06.496Z,9.75
2022-09-29T20:41:37.758Z,7.38
2022-09-29T20:44:05.375Z,9.05
2022-09-29T20:46:37.318Z,8.57
2022-09-29T20:51:54.081Z,11.07
2022-09-29T20:54:29.046Z,11.25
2022-09-29T20:56:56.356Z,8.48
2022-09-29T20:59:25.790Z,10.57
2022-09-29T21:02:06.262Z,14.07
2022-09-29T21:04:35.726Z,16.95
2022-09-29T21:07:04.744Z,15.20
2022-09-29T21:09:31.932Z,10.90
2022-09-29T21:17:37.353Z,10.43
2022-09-29T21:28:38.769Z,11.75
2022-09-29T21:33:54.256Z,12.25
2022-09-29T21:36:28.244Z,11.20
2022-09-29T21:47:37.680Z,11.63
2022-09-29T21:55:23.886Z,11.70
2022-09-29T21:57:50.663Z,13.93
2022-09-29T22:03:07.411Z,16.23
2022-09-29T22:05:43.764Z,13.63
2022-09-29T22:08:13.373Z,18.02
2022-09-29T22:10:40.086Z,16.30
2022-09-29T22:13:11.503Z,13.77
2022-09-29T22:15:40.629Z,15.25
2022-09-29T22:18:07.721Z,16.43
2022-09-29T22:20:39.299Z,15.85
2022-09-29T22:39:31.158Z,14.20
2022-09-29T22:42:10.922Z,15.45
2022-09-29T22:47:20.188Z,17.67
2022-09-29T22:49:54.976Z,13.38
2022-09-29T22:52:21.955Z,15.48
2022-09-29T22:54:48.824Z,10.65
2022-09-29T22:57:15.621Z,15.20
2022-09-29T22:59:43.504Z,14.82
2022-09-29T23:02:11.634Z,18.70
2022-09-29T23:07:43.877Z,13.25
2022-09-29T23:13:27.261Z,13.43
2022-09-29T23:15:59.526Z,13.05
2022-09-29T23:21:44.879Z,13.68
2022-09-29T23:31:21.622Z,11.23
2022-09-29T23:34:15.393Z,10.90
2022-09-29T23:36:41.973Z,11.35
2022-09-29T23:39:10.562Z,10.83
2022-09-29T23:42:02.993Z,12.32
2022-09-29T23:44:31.143Z,11.05
2022-09-29T23:46:58.160Z,14.20
2022-09-29T23:49:30.875Z,9.82
2022-09-29T23:54:49.945Z,10.45
2022-09-29T23:57:16.695Z,16.25
2022-09-29T23:59:59.750Z,15.95
